FW4185 Weather Reports


Display with metric or nautical units.
time (UTC)temp
F
wind
direction
speed
MPH
gust
MPH
rain 1hr
in
rain 24hr
in
rain mn
in
humidity
%
barometer
mb
20200403085253 40 329 5.0 11.0 0.00 0.00 0.00 59 1013.3
20200403083933 40 334 5.0 9.0 0.00 0.00 0.00 60 1013.3
20200403083253 0 348 6.0 4.0 0.00 0.00 0.00
20200403082503 40 335 5.0 11.0 0.00 0.00 0.00 60 1013.2
20200403081144 40 330 5.0 9.0 0.00 0.00 0.00 59 1013.3
20200403074353 0 330 3.0 3.0 0.00 0.00 0.00
20200403073603 41 329 5.0 9.0 0.00 0.00 0.00 56 1013.2
20200403072922 41 329 4.0 9.0 0.00 0.00 0.00 56 1013.2
20200403072242 41 327 4.0 9.0 0.00 0.00 0.00 53 1013.2
20200403065342 42 358 4.0 11.0 0.00 0.00 0.00 45 1013.2
20200403064702 42 344 7.0 11.0 0.00 0.00 0.00 44 1013.3
20200403064022 42 347 7.0 11.0 0.00 0.00 0.00 43 1013.4
20200403062702 42 357 6.0 11.0 0.00 0.00 0.00 44 1013.6
20200403061342 41 9 5.0 10.0 0.00 0.00 0.00 46 1013.5
20200403060702 41 0 5.0 11.0 0.00 0.00 0.00 45 1013.5
20200403053232 42 354 6.0 10.0 0.00 0.00 0.00 48 1013.7
20200403052552 43 348 7.0 12.0 0.00 0.00 0.00 48 1013.7
20200403051913 0 339 6.0 7.0 0.00 0.00 0.00
20200403050333 43 347 6.0 14.0 0.00 0.00 0.00 49 1013.7
20200403043013 44 347 6.0 15.0 0.00 0.00 0.00 46 1013.7
20200403035435 44 348 8.0 14.0 0.00 0.00 0.00 42 1013.6
20200403032754 44 345 7.0 11.0 0.00 0.00 0.00 42 1013.7
20200403032114 44 336 5.0 11.0 0.00 0.00 0.00 42 1013.7
20200403030754 44 341 6.0 14.0 0.00 0.00 0.00 42 1013.8
20200403024754 45 345 7.0 11.0 0.00 0.00 0.00 39 1013.9
20200403021746 45 355 9.0 15.0 0.00 0.00 0.00 31 1013.8
20200403021105 45 358 9.0 15.0 0.00 0.00 0.00 36 1013.9
20200403015746 44 344 7.0 15.0 0.00 0.00 0.00 50 1013.9
20200403014243 41 292 0.0 0.0 0.00 0.00 0.00 77 1014.0
20200403011604 41 213 0.0 0.0 0.00 0.00 0.00 78 1013.7
20200403010244 40 219 0.0 0.0 0.00 0.00 0.00 80 1013.8
20200403005604 40 216 0.0 4.0 0.00 0.00 0.00 80 1013.7
20200403002815 40 266 0.0 0.0 0.00 0.00 0.00 80 1013.6
20200402232442 43 249 7.0 15.0 0.00 0.00 0.00 71 1013.1
20200402230442 44 237 12.0 18.0 0.00 0.00 0.00 69 1013.1
20200402225012 45 234 11.0 18.0 0.00 0.00 0.00 66 1013.2
20200402222903 0 228 12.0 14.0 0.00 0.00 0.00
20200402222113 45 231 12.0 18.0 0.00 0.00 0.00 64 1013.3
20200402221434 46 231 12.0 19.0 0.00 0.00 0.00 62 1013.3
20200402215435 46 228 12.0 20.0 0.00 0.00 0.00 62 1013.4
20200402212643 46 223 13.0 22.0 0.00 0.00 0.00 57 1013.4
20200402212003 46 230 13.0 21.0 0.00 0.00 0.00 59 1013.5
20200402211323 45 234 14.0 23.0 0.00 0.00 0.00 61 1013.5
20200402210003 45 237 13.0 23.0 0.00 0.00 0.00 61 1013.5
20200402205323 45 239 14.0 25.0 0.00 0.00 0.00 63 1013.4
20200402204643 45 240 17.0 25.0 0.00 0.00 0.00 61 1013.5
20200402204003 45 245 14.0 21.0 0.00 0.00 0.00 60 1013.6
20200402202643 45 241 13.0 21.0 0.00 0.00 0.00 61 1013.8
20200402201323 0 246 13.0 10.0 0.00 0.00 0.00
20200402194534 46 245 10.0 18.0 0.00 0.00 0.00 62 1014.1
20200402193214 48 220 9.0 16.0 0.00 0.00 0.00 51 1014.1
20200402192534 49 237 8.0 12.0 0.00 0.00 0.00 51 1014.3
20200402191854 51 232 3.0 14.0 0.00 0.00 0.00 45 1014.3
20200402191214 50 245 4.0 14.0 0.00 0.00 0.00 47 1014.4
20200402190534 51 264 5.0 10.0 0.00 0.00 0.00 41 1014.4
20200402185214 50 264 5.0 9.0 0.00 0.00 0.00 46 1014.6
20200402183855 53 297 6.0 11.0 0.00 0.00 0.00 41 1014.6
20200402175215 50 328 9.0 12.0 0.00 0.00 0.00 41 1015.1
20200402174535 50 319 7.0 5.0 0.00 0.00 0.00 37 1015.3
20200402173744 50 305 8.0 13.0 0.00 0.00 0.00 43 1015.3
20200402173104 51 305 8.0 14.0 0.00 0.00 0.00 41 1015.3
20200402171104 0 327 8.0 9.0 0.00 0.00 0.00
20200402170314 49 328 10.0 14.0 0.00 0.00 0.00 38 1015.5
20200402164954 49 325 8.0 14.0 0.00 0.00 0.00 40 1015.6
20200402163635 49 311 6.0 11.0 0.00 0.00 0.00 44 1015.5
20200402162954 50 298 7.0 11.0 0.00 0.00 0.00 41 1015.6
20200402160134 48 305 8.0 12.0 0.00 0.00 0.00 43 1015.7
20200402155454 49 308 8.0 11.0 0.00 0.00 0.00 42 1015.8
20200402154024 48 304 8.0 13.0 0.00 0.00 0.00 42 1015.8
20200402153344 48 317 6.0 13.0 0.00 0.00 0.00 45 1015.8
20200402152024 47 324 9.0 15.0 0.00 0.00 0.00 44 1015.7
20200402151345 48 310 8.0 12.0 0.00 0.00 0.00 47 1015.7
20200402150705 48 300 7.0 10.0 0.00 0.00 0.00 48 1015.7
20200402141235 46 288 6.0 8.0 0.00 0.00 0.00 51 1015.7
20200402140555 46 297 5.0 8.0 0.00 0.00 0.00 51 1015.7
20200402135915 45 305 5.0 9.0 0.00 0.00 0.00 50 1015.6
20200402133915 44 289 6.0 9.0 0.00 0.00 0.00 53 1015.5
20200402133235 44 311 6.0 10.0 0.00 0.00 0.00 52 1015.5
20200402125915 42 325 6.0 9.0 0.00 0.00 0.00 56 1015.3
20200402123806 42 324 5.0 8.0 0.00 0.00 0.00 57 1015.4
20200402122446 40 340 6.0 9.0 0.00 0.00 0.00 59 1015.4
20200402121017 40 331 5.0 12.0 0.00 0.00 0.00 59 1015.2
20200402120336 41 335 4.0 9.0 0.00 0.00 0.00 58 1015.2
20200402115016 41 327 3.0 10.0 0.00 0.00 0.00 58 1015.1
20200402114336 41 314 5.0 10.0 0.00 0.00 0.00 57 1014.9
20200402112114 0 334 4.0 3.0 0.00 0.00 0.00
20200402105100 40 319 4.0 8.0 0.00 0.00 0.00 61 1014.1
20200402103740 40 305 1.0 8.0 0.00 0.00 0.00 61 1014.0
20200402101740 40 287 3.0 6.0 0.00 0.00 0.00 60 1013.9
20200402094949 40 313 5.0 8.0 0.00 0.00 0.00 55 1013.7
20200402094309 40 312 4.0 6.0 0.00 0.00 0.00 54 1013.7
20200402092949 40 311 4.0 8.0 0.00 0.00 0.00 53 1013.7
20200402092309 0 311 4.0 6.0 0.00 0.00 0.00
20200402090838 40 303 4.0 7.0 0.00 0.00 0.00 55 1013.6